Okmulgee, OK (74447)

11:59 PM CST on February 09, 2016 (GMT -0600)
Brown Edition | | Change Station
CLOSE
Current Station
Personal Weather Station
Location: Henryetta, OK
Elevation: 755 ft
Nearby Weather Stations

Elev 755 ft 35.44 °N, 95.99 °W | Updated 6 seconds ago

Clear
Clear
32.9 °F
Feels Like 33 °F
N
0.0
Wind Variable Wind from SE
Gusts 0.0 mph

Today
High -- | Low -- °F
--% Chance of Precip.
Yesterday
High -- | Low -- °F
Precip. -- in
Pressure 30.35 in
Visibility 10.0 miles
Clouds Clear
Windchill 33 °F
Dew Point 16 °F
Humidity 50%
Rainfall 0.00 in
Snow Depth Not available.
7:17 AM 5:59 PM
Waxing Crescent, 4% visible
METAR KRVS 100553Z AUTO 03009KT 10SM CLR M01/M11 A3033 RMK AO2 SLP277 T10111111 10067 21011 400891011 50001
Pressure 30.35 in
Visibility 10.0 miles
Clouds Clear
Windchill 33 °F
Dew Point 16 °F
Humidity 50%
Rainfall 0.00 in
Snow Depth Not available.
7:17 AM 5:59 PM
Waxing Crescent, 4% visible
METAR KRVS 100553Z AUTO 03009KT 10SM CLR M01/M11 A3033 RMK AO2 SLP277 T10111111 10067 21011 400891011 50001

10-Day Weather Forecast

Almanac

Astronomy

Feb. 09, 2016 Rise Set
Actual Time
Civil Twilight
Nautical Twilight
Astronomical Twilight
Moon
Length of Visible Light
Length of Day
Tomorrow will be .
, % of the Moon is Illuminated

Today's Extremes

State Highs State Lows

Community

WunderPhotos

Upload Photos

1,891,823 photos uploaded!

WunderBlog® & News

Nearby

Air Quality

  Air Quality AQ Index Pollutant
Not available.

Snow Depth

Station Depth Elevation

Earthquake Activity

City Distance Mag. Time & Date
Minimum magnitude displayed is 2.5.

Coastal Water Temperatures

Place Temperature

Stations

Nearby Weather Stations

Station Location Temp. Windchill Dew Point Humidity Wind Precip. Elev Updated Type
                   

Watches & Warnings

There are currently no watches in effect.